Time;durP1;ratioP1;P1;durP2;ratioP2;P2;SDS_P1;SDS_P2;PMS_P1;PMS_P2;Temp;Humidity;BMP_temperature;BMP_pressure;BME280_temperature;BME280_humidity;BME280_pressure;Samples;Min_cycle;Max_cycle;Signal;HPM_P1;HPM_P2
2022/10/14 00:00:15;;;;;;;0.20;0.10;;;;;;;;;;5014994;28;20295;-86
2022/10/14 00:02:41;;;;;;;0.20;0.10;;;;;;;;;;5020144;28;20047;-85
2022/10/14 00:05:08;;;;;;;0.20;0.20;;;;;;;;;;5001042;28;20072;-86
2022/10/14 00:07:35;;;;;;;0.20;0.10;;;;;;;;;;5035845;28;20041;-83
2022/10/14 00:10:01;;;;;;;0.20;0.10;;;;;;;;;;5020698;28;20037;-86
2022/10/14 00:12:28;;;;;;;0.20;0.10;;;;;;;;;;5015719;28;20392;-86
2022/10/14 00:14:55;;;;;;;0.20;0.20;;;;;;;;;;5021673;28;20045;-86
2022/10/14 00:17:21;;;;;;;0.20;0.10;;;;;;;;;;5001939;28;20045;-86
2022/10/14 00:19:47;;;;;;;0.45;0.22;;;;;;;;;;5021240;28;20049;-84
2022/10/14 00:22:14;;;;;;;0.35;0.25;;;;;;;;;;4998702;28;20033;-84
2022/10/14 00:24:41;;;;;;;0.20;0.10;;;;;;;;;;4996799;28;20566;-86
2022/10/14 00:27:07;;;;;;;0.35;0.20;;;;;;;;;;5014129;28;20487;-85
2022/10/14 00:29:33;;;;;;;0.20;0.10;;;;;;;;;;5035055;28;20506;-85
2022/10/14 00:31:59;;;;;;;0.20;0.10;;;;;;;;;;5015311;28;20045;-84
2022/10/14 00:34:25;;;;;;;0.20;0.20;;;;;;;;;;5015726;28;20586;-85
2022/10/14 00:36:51;;;;;;;0.20;0.10;;;;;;;;;;4999265;28;20037;-82
2022/10/14 00:39:17;;;;;;;0.20;0.10;;;;;;;;;;5015406;28;20048;-85
2022/10/14 00:41:44;;;;;;;0.20;0.10;;;;;;;;;;4999304;28;20131;-84
2022/10/14 00:44:10;;;;;;;0.20;0.10;;;;;;;;;;5012202;28;20058;-84
2022/10/14 00:46:37;;;;;;;0.20;0.10;;;;;;;;;;5010725;28;20041;-85
2022/10/14 00:49:08;;;;;;;0.20;0.10;;;;;;;;;;5016327;28;20683;-87
2022/10/14 00:51:35;;;;;;;0.45;0.20;;;;;;;;;;5033261;28;20144;-85
2022/10/14 00:54:02;;;;;;;0.30;0.20;;;;;;;;;;5018208;28;20112;-87
2022/10/14 00:56:29;;;;;;;0.20;0.10;;;;;;;;;;5036635;28;20090;-86
2022/10/14 00:58:56;;;;;;;0.20;0.10;;;;;;;;;;5015648;28;20131;-87
2022/10/14 01:01:22;;;;;;;0.25;0.25;;;;;;;;;;5002224;28;20448;-85
2022/10/14 01:03:48;;;;;;;0.20;0.10;;;;;;;;;;5004441;28;20048;-85
2022/10/14 01:06:14;;;;;;;0.20;0.10;;;;;;;;;;5016791;28;20068;-86
2022/10/14 01:08:46;;;;;;;0.20;0.10;;;;;;;;;;5029699;28;20080;-85
2022/10/14 01:11:19;;;;;;;0.20;0.10;;;;;;;;;;5019123;28;20048;-86
2022/10/14 01:14:02;;;;;;;0.20;0.10;;;;;;;;;;5028808;28;20638;-85
2022/10/14 01:16:28;;;;;;;;;;;;;;;;;;5014560;28;22382;-85
2022/10/14 01:19:13;;;;;;;0.20;0.10;;;;;;;;;;5027722;28;19924;-84
2022/10/14 01:21:42;;;;;;;0.20;0.10;;;;;;;;;;5014254;28;20951;-86
2022/10/14 01:24:14;;;;;;;0.20;0.10;;;;;;;;;;5019261;28;20191;-86
2022/10/14 01:26:50;;;;;;;0.20;0.10;;;;;;;;;;5030255;28;20041;-86
2022/10/14 01:29:35;;;;;;;0.30;0.20;;;;;;;;;;5015942;28;20084;-85
2022/10/14 01:32:07;;;;;;;0.20;0.10;;;;;;;;;;5014744;28;20090;-85
2022/10/14 01:34:33;;;;;;;;;;;;;;;;;;5031890;28;20051;-87
2022/10/14 01:37:03;;;;;;;0.20;0.10;;;;;;;;;;5033061;28;20382;-86
2022/10/14 01:39:35;;;;;;;0.20;0.10;;;;;;;;;;5030816;28;20038;-84
2022/10/14 01:42:10;;;;;;;0.20;0.10;;;;;;;;;;5033438;28;20226;-86
2022/10/14 01:44:40;;;;;;;0.40;0.20;;;;;;;;;;5018089;28;20094;-84
2022/10/14 01:47:07;;;;;;;0.20;0.10;;;;;;;;;;5031020;28;20029;-85
2022/10/14 01:49:49;;;;;;;0.20;0.10;;;;;;;;;;4996174;28;20043;-86
2022/10/14 01:52:21;;;;;;;0.20;0.10;;;;;;;;;;5018121;28;20416;-85
2022/10/14 01:54:48;;;;;;;0.20;0.10;;;;;;;;;;5017996;28;20048;-82
2022/10/14 01:57:16;;;;;;;0.20;0.10;;;;;;;;;;5020338;28;20043;-86
2022/10/14 01:59:43;;;;;;;0.20;0.10;;;;;;;;;;5018609;28;20040;-85
2022/10/14 02:02:12;;;;;;;0.20;0.10;;;;;;;;;;5012491;28;20625;-85
2022/10/14 02:04:38;;;;;;;0.20;0.10;;;;;;;;;;5017988;28;20485;-85
2022/10/14 02:07:11;;;;;;;0.20;0.10;;;;;;;;;;5037316;28;20078;-83
2022/10/14 02:09:49;;;;;;;0.40;0.30;;;;;;;;;;5019801;28;20175;-86
2022/10/14 02:12:33;;;;;;;0.20;0.10;;;;;;;;;;5017295;28;20041;-86
2022/10/14 02:15:02;;;;;;;0.20;0.10;;;;;;;;;;5037806;28;20048;-85
2022/10/14 02:17:34;;;;;;;0.20;0.10;;;;;;;;;;5017869;28;20044;-85
2022/10/14 02:20:04;;;;;;;0.25;0.25;;;;;;;;;;5037247;28;20127;-85
2022/10/14 02:22:42;;;;;;;0.20;0.10;;;;;;;;;;5031512;28;20043;-84
2022/10/14 02:25:13;;;;;;;0.20;0.10;;;;;;;;;;5023665;28;20045;-87
2022/10/14 02:27:39;;;;;;;0.20;0.10;;;;;;;;;;5037067;28;20055;-83
2022/10/14 02:30:06;;;;;;;0.22;0.10;;;;;;;;;;5002733;28;20043;-86
2022/10/14 02:32:32;;;;;;;0.20;0.17;;;;;;;;;;5002752;28;20125;-85
2022/10/14 02:34:59;;;;;;;0.20;0.10;;;;;;;;;;5014894;28;20048;-86
2022/10/14 02:37:26;;;;;;;0.20;0.10;;;;;;;;;;5004830;28;20041;-85
2022/10/14 02:39:58;;;;;;;0.20;0.10;;;;;;;;;;5019546;28;20044;-87
2022/10/14 02:42:24;;;;;;;0.20;0.10;;;;;;;;;;5035147;28;20495;-86
2022/10/14 02:44:58;;;;;;;0.20;0.10;;;;;;;;;;5023397;28;20048;-86
2022/10/14 02:47:25;;;;;;;0.20;0.10;;;;;;;;;;5035228;28;20041;-85
2022/10/14 02:49:51;;;;;;;0.20;0.10;;;;;;;;;;5033138;28;20120;-84
2022/10/14 02:52:18;;;;;;;0.20;0.10;;;;;;;;;;5018010;28;20040;-85
2022/10/14 02:54:44;;;;;;;0.20;0.10;;;;;;;;;;5032131;28;20435;-85
2022/10/14 02:57:10;;;;;;;0.20;0.10;;;;;;;;;;5020086;28;20049;-85
2022/10/14 02:59:36;;;;;;;0.20;0.10;;;;;;;;;;5018502;28;20069;-86
2022/10/14 03:02:02;;;;;;;0.20;0.10;;;;;;;;;;5017854;28;20558;-86
2022/10/14 03:04:28;;;;;;;0.20;0.10;;;;;;;;;;5039019;28;20040;-88
2022/10/14 03:06:54;;;;;;;0.20;0.10;;;;;;;;;;5022107;28;20049;-87
2022/10/14 03:09:20;;;;;;;0.20;0.10;;;;;;;;;;5000759;28;20052;-87
2022/10/14 03:11:46;;;;;;;0.20;0.10;;;;;;;;;;5021396;28;20052;-87
2022/10/14 03:14:13;;;;;;;0.20;0.10;;;;;;;;;;5037765;28;20103;-86
2022/10/14 03:16:39;;;;;;;0.20;0.10;;;;;;;;;;5020369;28;20033;-86
2022/10/14 03:19:05;;;;;;;0.20;0.10;;;;;;;;;;5026833;28;20033;-85
2022/10/14 03:21:31;;;;;;;0.20;0.10;;;;;;;;;;5000626;28;20120;-87
2022/10/14 03:23:57;;;;;;;0.20;0.10;;;;;;;;;;5016791;28;20048;-86
2022/10/14 03:26:23;;;;;;;0.20;0.10;;;;;;;;;;4999777;28;20710;-87
2022/10/14 03:28:49;;;;;;;0.20;0.10;;;;;;;;;;5032304;28;20526;-87
2022/10/14 03:31:15;;;;;;;0.20;0.10;;;;;;;;;;5033924;28;20675;-87
2022/10/14 03:33:41;;;;;;;0.20;0.10;;;;;;;;;;5033505;28;20597;-86
2022/10/14 03:36:07;;;;;;;0.20;0.10;;;;;;;;;;5000503;28;20041;-85
2022/10/14 03:38:33;;;;;;;0.20;0.10;;;;;;;;;;5015520;28;20065;-85
2022/10/14 03:40:59;;;;;;;0.20;0.10;;;;;;;;;;5016860;28;20178;-85
2022/10/14 03:43:25;;;;;;;0.20;0.10;;;;;;;;;;5001232;28;20037;-86
2022/10/14 03:45:51;;;;;;;0.20;0.10;;;;;;;;;;5014994;28;20036;-86
2022/10/14 03:48:17;;;;;;;0.20;0.10;;;;;;;;;;5004751;28;20114;-86
2022/10/14 03:50:46;;;;;;;0.43;0.25;;;;;;;;;;5033417;28;20041;-86
2022/10/14 03:53:12;;;;;;;0.20;0.10;;;;;;;;;;5015569;28;20084;-84
2022/10/14 03:55:38;;;;;;;0.20;0.10;;;;;;;;;;5032100;28;20120;-86
2022/10/14 03:58:05;;;;;;;0.20;0.10;;;;;;;;;;5028642;28;20045;-87
2022/10/14 04:00:31;;;;;;;0.20;0.10;;;;;;;;;;5018880;28;20488;-87
2022/10/14 04:02:57;;;;;;;0.20;0.10;;;;;;;;;;5063937;22;20044;-83
2022/10/14 04:05:23;;;;;;;0.20;0.10;;;;;;;;;;5033396;28;20045;-83
2022/10/14 04:07:50;;;;;;;0.20;0.10;;;;;;;;;;5032239;28;20043;-84
2022/10/14 04:10:16;;;;;;;0.20;0.10;;;;;;;;;;5049696;28;20048;-83
2022/10/14 04:12:42;;;;;;;0.20;0.10;;;;;;;;;;5014854;28;20036;-83
2022/10/14 04:15:09;;;;;;;0.20;0.10;;;;;;;;;;5049500;28;20060;-84
2022/10/14 04:17:35;;;;;;;0.20;0.10;;;;;;;;;;5043087;28;20045;-82
2022/10/14 04:20:01;;;;;;;0.20;0.10;;;;;;;;;;5046441;28;20551;-84
2022/10/14 04:22:28;;;;;;;0.20;0.10;;;;;;;;;;5029414;28;20036;-83
2022/10/14 04:24:54;;;;;;;0.63;0.63;;;;;;;;;;5028246;28;20127;-83
2022/10/14 04:27:21;;;;;;;0.20;0.10;;;;;;;;;;5018513;28;20064;-83
2022/10/14 04:29:47;;;;;;;0.20;0.10;;;;;;;;;;5036682;28;20039;-84
2022/10/14 04:32:13;;;;;;;0.20;0.10;;;;;;;;;;5025709;28;20051;-84
2022/10/14 04:34:39;;;;;;;0.50;0.40;;;;;;;;;;5045754;28;20515;-83
2022/10/14 04:37:05;;;;;;;0.20;0.10;;;;;;;;;;5022493;28;20044;-82
2022/10/14 04:39:31;;;;;;;0.30;0.30;;;;;;;;;;5028770;28;20052;-84
2022/10/14 04:41:57;;;;;;;0.20;0.15;;;;;;;;;;5024757;28;20103;-83
2022/10/14 04:44:23;;;;;;;0.20;0.20;;;;;;;;;;5028505;28;20045;-82
2022/10/14 04:46:49;;;;;;;0.30;0.30;;;;;;;;;;5024810;28;20119;-82
2022/10/14 04:49:16;;;;;;;1.98;0.20;;;;;;;;;;5027615;28;20044;-82
2022/10/14 04:51:42;;;;;;;0.20;0.10;;;;;;;;;;5017161;28;20483;-84
2022/10/14 04:54:09;;;;;;;0.20;0.10;;;;;;;;;;5026868;28;20044;-83
2022/10/14 04:56:35;;;;;;;0.20;0.10;;;;;;;;;;5023920;28;20087;-83
2022/10/14 04:59:01;;;;;;;0.30;0.28;;;;;;;;;;5029345;28;20545;-84
2022/10/14 05:01:27;;;;;;;0.20;0.10;;;;;;;;;;5045296;28;20867;-84
2022/10/14 05:03:53;;;;;;;0.20;0.10;;;;;;;;;;5042177;28;20151;-83
2022/10/14 05:06:19;;;;;;;0.20;0.20;;;;;;;;;;5016025;28;20406;-82
2022/10/14 05:08:46;;;;;;;0.20;0.20;;;;;;;;;;5016303;28;21423;-82
2022/10/14 05:11:12;;;;;;;0.20;0.10;;;;;;;;;;5030266;28;20543;-83
2022/10/14 05:13:38;;;;;;;0.20;0.10;;;;;;;;;;5043548;28;20048;-82
2022/10/14 05:16:05;;;;;;;0.75;0.65;;;;;;;;;;5042831;28;20037;-83
2022/10/14 05:18:31;;;;;;;0.50;0.47;;;;;;;;;;5028436;28;20040;-83
2022/10/14 05:20:58;;;;;;;0.20;0.10;;;;;;;;;;5045054;28;20258;-83
2022/10/14 05:23:24;;;;;;;0.20;0.10;;;;;;;;;;5011127;28;20533;-82
2022/10/14 05:25:50;;;;;;;0.20;0.10;;;;;;;;;;5047811;28;20040;-82
2022/10/14 05:28:19;;;;;;;0.20;0.10;;;;;;;;;;5025648;28;20036;-82
2022/10/14 05:30:46;;;;;;;0.80;0.40;;;;;;;;;;5016802;28;20037;-82
2022/10/14 05:33:15;;;;;;;0.45;0.45;;;;;;;;;;5029837;28;20041;-82
2022/10/14 05:35:42;;;;;;;0.28;0.22;;;;;;;;;;5020117;28;20555;-83
2022/10/14 05:38:08;;;;;;;0.20;0.10;;;;;;;;;;5036441;28;20044;-82
2022/10/14 05:40:42;;;;;;;0.20;0.10;;;;;;;;;;5049816;28;20120;-83
2022/10/14 05:43:08;;;;;;;0.20;0.17;;;;;;;;;;5049745;28;20506;-82
2022/10/14 05:45:34;;;;;;;0.20;0.10;;;;;;;;;;5054474;28;20473;-84
2022/10/14 05:48:11;;;;;;;0.20;0.10;;;;;;;;;;5050870;28;20739;-83
2022/10/14 05:50:37;;;;;;;0.20;0.10;;;;;;;;;;5035165;28;20047;-82
2022/10/14 05:53:03;;;;;;;0.20;0.10;;;;;;;;;;5039784;28;20371;-83
2022/10/14 05:55:30;;;;;;;0.20;0.10;;;;;;;;;;5030106;28;20129;-83
2022/10/14 05:57:56;;;;;;;0.20;0.10;;;;;;;;;;5043342;28;20039;-83
2022/10/14 06:00:25;;;;;;;0.20;0.10;;;;;;;;;;5040862;28;20037;-83
2022/10/14 06:02:51;;;;;;;0.20;0.10;;;;;;;;;;5057691;28;20178;-83
2022/10/14 06:05:17;;;;;;;0.20;0.10;;;;;;;;;;5058289;28;20071;-83
2022/10/14 06:07:43;;;;;;;0.20;0.10;;;;;;;;;;5033033;28;20033;-83
2022/10/14 06:10:10;;;;;;;0.20;0.10;;;;;;;;;;5037958;28;20489;-83
2022/10/14 06:12:37;;;;;;;0.20;0.10;;;;;;;;;;5036076;28;20040;-83
2022/10/14 06:15:03;;;;;;;0.20;0.10;;;;;;;;;;5050219;28;20068;-82
2022/10/14 06:17:29;;;;;;;0.20;0.10;;;;;;;;;;5035028;28;20055;-82
2022/10/14 06:19:55;;;;;;;0.20;0.10;;;;;;;;;;5026457;28;20083;-83
2022/10/14 06:22:21;;;;;;;0.20;0.20;;;;;;;;;;5035511;28;20035;-83
2022/10/14 06:24:47;;;;;;;0.20;0.10;;;;;;;;;;5033127;28;21638;-83
2022/10/14 06:27:14;;;;;;;0.20;0.10;;;;;;;;;;5033052;28;20049;-83
2022/10/14 06:29:43;;;;;;;0.20;0.10;;;;;;;;;;5045678;28;20033;-83
2022/10/14 06:32:15;;;;;;;0.30;0.30;;;;;;;;;;5050875;28;20047;-83
2022/10/14 06:34:43;;;;;;;0.30;0.30;;;;;;;;;;5035312;28;20097;-84
2022/10/14 06:37:14;;;;;;;0.52;0.40;;;;;;;;;;5050949;28;20465;-82
2022/10/14 06:39:42;;;;;;;0.20;0.10;;;;;;;;;;5030249;28;20503;-83
2022/10/14 06:42:19;;;;;;;0.20;0.10;;;;;;;;;;5034044;28;20052;-83
2022/10/14 06:44:45;;;;;;;0.20;0.10;;;;;;;;;;5034996;28;20041;-83
2022/10/14 06:47:11;;;;;;;0.20;0.20;;;;;;;;;;5034223;28;20037;-84
2022/10/14 06:49:37;;;;;;;0.20;0.10;;;;;;;;;;5035773;28;20025;-82
2022/10/14 06:52:03;;;;;;;0.20;0.10;;;;;;;;;;5022241;28;20137;-83
2022/10/14 06:54:33;;;;;;;0.30;0.30;;;;;;;;;;5037468;28;20124;-85
2022/10/14 06:57:17;;;;;;;0.20;0.10;;;;;;;;;;5040989;28;20128;-83
2022/10/14 06:59:43;;;;;;;0.20;0.10;;;;;;;;;;5030319;28;20033;-83
2022/10/14 07:02:10;;;;;;;0.20;0.10;;;;;;;;;;5039163;28;20041;-82
2022/10/14 07:04:36;;;;;;;0.20;0.10;;;;;;;;;;5051228;28;20055;-83
2022/10/14 07:07:14;;;;;;;0.20;0.10;;;;;;;;;;5051409;28;20409;-84
2022/10/14 07:09:40;;;;;;;0.20;0.10;;;;;;;;;;5048386;28;20068;-82
2022/10/14 07:12:06;;;;;;;0.20;0.10;;;;;;;;;;5035298;28;20071;-83
2022/10/14 07:14:35;;;;;;;0.30;0.22;;;;;;;;;;5032719;28;20052;-85
2022/10/14 07:17:02;;;;;;;0.20;0.10;;;;;;;;;;5048459;28;20594;-82
2022/10/14 07:19:28;;;;;;;0.20;0.10;;;;;;;;;;5030957;28;20132;-83
2022/10/14 07:21:54;;;;;;;0.20;0.10;;;;;;;;;;5050055;28;20025;-82
2022/10/14 07:24:20;;;;;;;0.20;0.10;;;;;;;;;;5035681;28;20560;-83
2022/10/14 07:26:49;;;;;;;0.20;0.10;;;;;;;;;;5045964;28;20097;-83
2022/10/14 07:29:15;;;;;;;0.20;0.10;;;;;;;;;;5022152;28;20048;-83
2022/10/14 07:31:41;;;;;;;0.20;0.10;;;;;;;;;;5020383;28;20062;-84
2022/10/14 07:34:07;;;;;;;0.20;0.10;;;;;;;;;;5033499;28;20040;-83
2022/10/14 07:36:48;;;;;;;0.20;0.10;;;;;;;;;;5047054;28;20075;-84
2022/10/14 07:39:14;;;;;;;0.20;0.10;;;;;;;;;;5034082;28;20032;-82
2022/10/14 07:41:45;;;;;;;1.75;0.40;;;;;;;;;;5047830;28;20045;-82
2022/10/14 07:44:13;;;;;;;0.20;0.10;;;;;;;;;;5031873;28;20498;-83
2022/10/14 07:46:40;;;;;;;0.20;0.10;;;;;;;;;;5032296;28;20102;-82
2022/10/14 07:49:08;;;;;;;0.40;0.20;;;;;;;;;;5034782;28;20040;-83
2022/10/14 07:51:35;;;;;;;0.20;0.10;;;;;;;;;;5030012;28;20045;-82
2022/10/14 07:54:02;;;;;;;0.20;0.10;;;;;;;;;;5033834;28;20044;-83
2022/10/14 07:56:28;;;;;;;0.20;0.10;;;;;;;;;;5032227;28;20045;-83
2022/10/14 07:58:55;;;;;;;0.20;0.10;;;;;;;;;;5022132;28;20594;-83
2022/10/14 08:01:23;;;;;;;0.20;0.10;;;;;;;;;;5046902;28;20042;-83
2022/10/14 08:03:50;;;;;;;0.20;0.10;;;;;;;;;;5030382;28;20052;-83
2022/10/14 08:06:16;;;;;;;0.20;0.10;;;;;;;;;;5030844;28;20047;-83
2022/10/14 08:08:43;;;;;;;0.20;0.10;;;;;;;;;;5032682;28;20064;-83
2022/10/14 08:11:16;;;;;;;0.20;0.10;;;;;;;;;;5032304;28;20056;-83
2022/10/14 08:13:43;;;;;;;0.20;0.10;;;;;;;;;;5039792;28;20040;-83
2022/10/14 08:16:12;;;;;;;0.25;0.13;;;;;;;;;;5048662;28;20127;-83
2022/10/14 08:18:38;;;;;;;0.20;0.10;;;;;;;;;;5049069;28;20068;-84
2022/10/14 08:21:05;;;;;;;0.20;0.10;;;;;;;;;;5049799;28;20687;-83
2022/10/14 08:23:31;;;;;;;0.20;0.10;;;;;;;;;;5041784;28;20093;-83
2022/10/14 08:25:57;;;;;;;0.30;0.20;;;;;;;;;;5036655;28;20059;-83
2022/10/14 08:28:24;;;;;;;0.20;0.10;;;;;;;;;;5036626;28;20135;-83
2022/10/14 08:30:51;;;;;;;0.20;0.10;;;;;;;;;;5030782;28;20137;-83
2022/10/14 08:33:42;;;;;;;0.28;0.28;;;;;;;;;;5031873;28;20460;-84
2022/10/14 08:36:14;;;;;;;0.20;0.13;;;;;;;;;;5049654;28;20048;-83
2022/10/14 08:38:43;;;;;;;0.20;0.10;;;;;;;;;;5040857;28;20498;-83
2022/10/14 08:41:12;;;;;;;0.20;0.10;;;;;;;;;;5032491;28;20083;-83
2022/10/14 08:43:42;;;;;;;0.20;0.10;;;;;;;;;;5050264;28;20045;-84
2022/10/14 08:46:30;;;;;;;0.20;0.10;;;;;;;;;;5052994;28;20187;-83
2022/10/14 08:49:06;;;;;;;0.20;0.10;;;;;;;;;;5048178;28;20044;-83
2022/10/14 08:51:35;;;;;;;0.20;0.10;;;;;;;;;;5032904;28;20033;-83
2022/10/14 08:54:10;;;;;;;0.20;0.10;;;;;;;;;;5046829;28;20037;-83
2022/10/14 08:56:45;;;;;;;0.20;0.10;;;;;;;;;;5036468;28;20651;-84
2022/10/14 08:59:18;;;;;;;0.20;0.10;;;;;;;;;;5049138;28;20052;-84
2022/10/14 09:02:10;;;;;;;0.20;0.10;;;;;;;;;;5046160;28;20036;-84
2022/10/14 09:04:42;;;;;;;0.20;0.10;;;;;;;;;;5022299;28;20037;-83
2022/10/14 09:07:27;;;;;;;0.20;0.10;;;;;;;;;;5048942;28;20112;-84
2022/10/14 09:10:25;;;;;;;0.20;0.10;;;;;;;;;;5038050;28;20044;-84
2022/10/14 09:13:29;;;;;;;0.20;0.10;;;;;;;;;;5024426;28;20102;-84
2022/10/14 09:19:02;;;;;;;0.20;0.10;;;;;;;;;;5032151;28;20045;-84
2022/10/14 09:21:50;;;;;;;0.20;0.10;;;;;;;;;;5025183;28;20041;-84
2022/10/14 09:27:50;;;;;;;0.20;0.10;;;;;;;;;;5008762;28;20099;-85
2022/10/14 09:30:26;;;;;;;0.20;0.10;;;;;;;;;;5005782;28;20147;-84
2022/10/14 09:32:56;;;;;;;0.20;0.10;;;;;;;;;;4987339;28;20045;-84
2022/10/14 09:35:51;;;;;;;0.20;0.10;;;;;;;;;;5005187;28;20037;-84
2022/10/14 09:38:23;;;;;;;0.20;0.10;;;;;;;;;;4999216;28;20053;-85
2022/10/14 09:40:58;;;;;;;0.20;0.10;;;;;;;;;;5015581;28;20049;-84
2022/10/14 09:43:24;;;;;;;0.30;0.20;;;;;;;;;;5005020;28;20060;-84
2022/10/14 09:46:00;;;;;;;0.25;0.20;;;;;;;;;;5001042;28;20151;-84
2022/10/14 09:48:39;;;;;;;0.55;0.30;;;;;;;;;;5005772;28;20129;-84
2022/10/14 09:51:05;;;;;;;0.20;0.10;;;;;;;;;;5034028;28;20052;-84
2022/10/14 09:53:47;;;;;;;0.20;0.10;;;;;;;;;;5033720;28;20054;-84
2022/10/14 09:56:26;;;;;;;0.20;0.10;;;;;;;;;;5037447;28;20055;-83
2022/10/14 09:59:04;;;;;;;0.20;0.10;;;;;;;;;;5037584;28;20077;-83
2022/10/14 10:01:41;;;;;;;0.20;0.10;;;;;;;;;;5065669;22;20041;-84
2022/10/14 10:04:40;;;;;;;0.20;0.10;;;;;;;;;;5011919;28;20152;-83
2022/10/14 10:07:17;;;;;;;0.43;0.10;;;;;;;;;;4950535;28;21678;-83
2022/10/14 10:09:53;;;;;;;0.20;0.10;;;;;;;;;;5019869;28;20046;-83
2022/10/14 10:12:24;;;;;;;0.20;0.10;;;;;;;;;;5025623;28;20060;-83
2022/10/14 10:15:03;;;;;;;0.20;0.10;;;;;;;;;;5014643;28;20136;-84
2022/10/14 10:17:31;;;;;;;0.20;0.10;;;;;;;;;;5037055;28;20044;-84
2022/10/14 10:20:16;;;;;;;0.20;0.10;;;;;;;;;;5015526;28;20053;-85
2022/10/14 10:22:43;;;;;;;0.20;0.10;;;;;;;;;;5020276;28;20054;-85
2022/10/14 10:25:09;;;;;;;0.20;0.10;;;;;;;;;;5001218;28;20091;-84
2022/10/14 10:27:40;;;;;;;0.20;0.10;;;;;;;;;;5014239;28;20051;-85
2022/10/14 10:30:21;;;;;;;0.20;0.10;;;;;;;;;;5027957;28;20207;-84
2022/10/14 10:32:47;;;;;;;0.20;0.10;;;;;;;;;;5013759;28;20057;-84
2022/10/14 10:35:22;;;;;;;0.20;0.10;;;;;;;;;;5015575;28;20159;-84
2022/10/14 10:38:19;;;;;;;0.20;0.10;;;;;;;;;;5031192;28;20087;-85
2022/10/14 10:41:04;;;;;;;0.68;0.20;;;;;;;;;;5000419;28;20132;-84
2022/10/14 10:43:49;;;;;;;0.20;0.10;;;;;;;;;;5034857;28;20501;-85
2022/10/14 10:46:29;;;;;;;0.20;0.10;;;;;;;;;;5030377;28;20038;-85
2022/10/14 10:49:14;;;;;;;0.20;0.10;;;;;;;;;;5031386;28;20033;-86
2022/10/14 10:51:43;;;;;;;0.20;0.10;;;;;;;;;;5016204;28;20636;-85
2022/10/14 10:54:19;;;;;;;0.30;0.30;;;;;;;;;;5032474;28;20040;-86
2022/10/14 10:56:51;;;;;;;0.20;0.17;;;;;;;;;;5017065;28;20176;-85
2022/10/14 10:59:17;;;;;;;;;;;;;;;;;;5029525;28;20041;-85
2022/10/14 11:02:02;;;;;;;0.20;0.10;;;;;;;;;;5016105;28;20335;-85
2022/10/14 11:04:34;;;;;;;0.20;0.10;;;;;;;;;;5017619;28;20052;-85
2022/10/14 11:12:59;;;;;;;0.20;0.10;;;;;;;;;;5035610;28;20038;-84
2022/10/14 11:15:39;;;;;;;0.20;0.10;;;;;;;;;;5018692;28;20055;-85
2022/10/14 11:18:28;;;;;;;0.20;0.20;;;;;;;;;;5032790;28;20041;-86
2022/10/14 11:20:57;;;;;;;0.20;0.10;;;;;;;;;;5030904;28;20507;-85
2022/10/14 11:23:26;;;;;;;0.20;0.10;;;;;;;;;;5024410;28;20037;-84
2022/10/14 11:26:09;;;;;;;0.47;0.43;;;;;;;;;;5031531;28;20048;-84
2022/10/14 11:28:54;;;;;;;0.20;0.08;;;;;;;;;;5010940;28;20063;-85
2022/10/14 11:31:31;;;;;;;0.20;0.10;;;;;;;;;;5023073;28;20048;-85
2022/10/14 11:34:13;;;;;;;0.20;0.10;;;;;;;;;;5020134;28;20087;-85
2022/10/14 11:36:51;;;;;;;0.20;0.10;;;;;;;;;;5030574;28;20404;-87
2022/10/14 11:39:17;;;;;;;3.00;0.40;;;;;;;;;;5029531;28;20076;-86
2022/10/14 11:41:44;;;;;;;0.20;0.10;;;;;;;;;;5013125;28;20130;-86
2022/10/14 11:44:26;;;;;;;0.20;0.10;;;;;;;;;;5018735;28;20103;-85
2022/10/14 11:46:55;;;;;;;0.20;0.10;;;;;;;;;;5018037;28;20483;-84
2022/10/14 11:49:29;;;;;;;0.20;0.10;;;;;;;;;;5013259;28;20178;-85
2022/10/14 11:52:01;;;;;;;0.20;0.10;;;;;;;;;;5012242;28;20048;-85
2022/10/14 11:54:32;;;;;;;0.20;0.10;;;;;;;;;;5012866;28;20349;-86
2022/10/14 11:57:07;;;;;;;0.20;0.10;;;;;;;;;;5018464;28;20072;-83
2022/10/14 11:59:51;;;;;;;0.20;0.10;;;;;;;;;;5012718;28;20136;-86
2022/10/14 12:02:38;;;;;;;0.20;0.10;;;;;;;;;;5026891;28;20090;-86
2022/10/14 12:05:10;;;;;;;0.20;0.10;;;;;;;;;;5021010;28;20129;-86
2022/10/14 12:08:03;;;;;;;0.20;0.10;;;;;;;;;;5028559;28;20057;-85
2022/10/14 12:10:33;;;;;;;0.20;0.10;;;;;;;;;;5024758;28;20044;-85
2022/10/14 12:13:00;;;;;;;0.20;0.10;;;;;;;;;;5011162;28;20051;-84
2022/10/14 12:15:28;;;;;;;0.20;0.20;;;;;;;;;;5016116;28;20522;-85
2022/10/14 12:17:55;;;;;;;0.20;0.10;;;;;;;;;;5031376;28;20048;-84
2022/10/14 12:20:43;;;;;;;0.20;0.10;;;;;;;;;;5033646;28;20167;-84
2022/10/14 12:23:12;;;;;;;0.20;0.10;;;;;;;;;;5032299;28;20118;-86
2022/10/14 12:25:43;;;;;;;0.20;0.10;;;;;;;;;;5015686;28;20048;-85
2022/10/14 12:28:11;;;;;;;0.20;0.10;;;;;;;;;;5013639;28;20037;-85
2022/10/14 12:30:39;;;;;;;0.20;0.10;;;;;;;;;;5030264;28;20033;-85
2022/10/14 12:33:06;;;;;;;0.20;0.10;;;;;;;;;;5013329;28;20398;-86
2022/10/14 12:35:53;;;;;;;0.20;0.10;;;;;;;;;;5030524;28;20052;-84
2022/10/14 12:38:20;;;;;;;0.20;0.10;;;;;;;;;;5029933;28;20103;-86
2022/10/14 12:40:48;;;;;;;0.20;0.10;;;;;;;;;;5015720;28;20052;-85
2022/10/14 12:43:16;;;;;;;0.20;0.10;;;;;;;;;;5038973;28;20033;-84
2022/10/14 12:45:50;;;;;;;0.20;0.10;;;;;;;;;;5013804;28;20056;-86
2022/10/14 12:48:24;;;;;;;0.20;0.10;;;;;;;;;;5034003;28;20400;-85
2022/10/14 12:50:56;;;;;;;0.20;0.10;;;;;;;;;;5013698;28;20117;-85
2022/10/14 12:53:29;;;;;;;0.20;0.10;;;;;;;;;;5029632;28;20053;-86
2022/10/14 12:55:57;;;;;;;0.20;0.10;;;;;;;;;;5015843;28;20033;-84
2022/10/14 12:58:30;;;;;;;0.28;0.28;;;;;;;;;;5018258;28;20095;-86
2022/10/14 13:00:59;;;;;;;0.20;0.10;;;;;;;;;;5022895;28;20191;-83
2022/10/14 13:03:27;;;;;;;0.20;0.10;;;;;;;;;;5030835;28;20496;-83
2022/10/14 13:06:13;;;;;;;0.20;0.10;;;;;;;;;;5016641;28;20526;-85
2022/10/14 13:08:39;;;;;;;0.20;0.10;;;;;;;;;;5016586;28;20037;-83
2022/10/14 13:11:12;;;;;;;0.20;0.10;;;;;;;;;;5028562;28;20038;-84
2022/10/14 13:13:46;;;;;;;0.20;0.10;;;;;;;;;;5034742;28;20045;-84
2022/10/14 13:16:25;;;;;;;0.20;0.10;;;;;;;;;;5018031;28;20059;-84
2022/10/14 13:18:56;;;;;;;0.20;0.10;;;;;;;;;;5031693;28;20044;-85
2022/10/14 13:21:25;;;;;;;0.28;0.17;;;;;;;;;;5014089;28;20317;-86
2022/10/14 13:23:52;;;;;;;0.20;0.10;;;;;;;;;;5013268;28;20133;-84
2022/10/14 13:26:29;;;;;;;0.20;0.10;;;;;;;;;;5018496;28;20048;-85
2022/10/14 13:29:14;;;;;;;0.20;0.10;;;;;;;;;;5016097;28;20463;-86
2022/10/14 13:31:45;;;;;;;0.20;0.10;;;;;;;;;;5016078;28;20499;-87
2022/10/14 13:34:31;;;;;;;0.20;0.20;;;;;;;;;;5015179;28;20045;-89
2022/10/14 13:37:05;;;;;;;0.20;0.10;;;;;;;;;;5045795;28;20414;-88
2022/10/14 13:39:32;;;;;;;0.20;0.10;;;;;;;;;;5013349;28;20037;-85
2022/10/14 13:41:58;;;;;;;0.20;0.10;;;;;;;;;;5031428;28;20407;-88
2022/10/14 13:44:25;;;;;;;0.20;0.10;;;;;;;;;;4997166;28;20230;-85
2022/10/14 13:46:51;;;;;;;0.20;0.10;;;;;;;;;;5012732;28;20452;-89
2022/10/14 13:49:19;;;;;;;0.20;0.10;;;;;;;;;;4997308;28;20041;-86
2022/10/14 13:52:18;;;;;;;0.30;0.30;;;;;;;;;;5029509;28;20044;-87
2022/10/14 13:54:44;;;;;;;0.20;0.10;;;;;;;;;;4972402;28;20056;-87
2022/10/14 13:57:10;;;;;;;0.20;0.10;;;;;;;;;;5013477;28;20049;-87
2022/10/14 13:59:40;;;;;;;0.20;0.10;;;;;;;;;;5014484;28;20037;-87
2022/10/14 14:02:14;;;;;;;0.20;0.10;;;;;;;;;;5013763;28;20093;-87
2022/10/14 14:04:41;;;;;;;0.20;0.10;;;;;;;;;;5038399;28;20072;-87
2022/10/14 14:07:14;;;;;;;1.10;0.20;;;;;;;;;;5019682;28;20072;-84
2022/10/14 14:09:40;;;;;;;0.20;0.10;;;;;;;;;;5020012;28;20041;-85
2022/10/14 14:12:06;;;;;;;0.20;0.10;;;;;;;;;;5000289;28;20404;-86
2022/10/14 14:14:43;;;;;;;0.20;0.10;;;;;;;;;;5029640;28;20033;-86
2022/10/14 14:17:16;;;;;;;0.20;0.10;;;;;;;;;;5015894;28;20052;-86
2022/10/14 14:19:44;;;;;;;0.20;0.10;;;;;;;;;;5034568;28;20045;-88
2022/10/14 14:22:29;;;;;;;0.20;0.10;;;;;;;;;;5019144;28;20034;-85
2022/10/14 14:25:11;;;;;;;0.20;0.10;;;;;;;;;;5015341;28;20119;-85
2022/10/14 14:27:42;;;;;;;0.30;0.10;;;;;;;;;;5026365;28;20148;-88
2022/10/14 14:30:19;;;;;;;0.20;0.10;;;;;;;;;;5032793;28;20095;-84
2022/10/14 14:32:46;;;;;;;0.20;0.10;;;;;;;;;;5022694;28;20822;-86
2022/10/14 14:35:12;;;;;;;0.20;0.10;;;;;;;;;;5000292;28;20036;-86
2022/10/14 14:37:43;;;;;;;0.20;0.10;;;;;;;;;;5019259;28;20080;-86
2022/10/14 14:40:16;;;;;;;0.20;0.10;;;;;;;;;;5033202;28;20116;-86
2022/10/14 14:42:43;;;;;;;0.20;0.10;;;;;;;;;;5019819;28;20100;-85
2022/10/14 14:45:14;;;;;;;0.20;0.10;;;;;;;;;;5035831;28;20042;-86
2022/10/14 14:47:41;;;;;;;0.20;0.10;;;;;;;;;;5037703;28;20040;-86
2022/10/14 14:50:10;;;;;;;0.20;0.10;;;;;;;;;;5035069;28;20043;-86
2022/10/14 14:52:37;;;;;;;0.20;0.10;;;;;;;;;;5016377;28;20038;-87
2022/10/14 14:55:03;;;;;;;0.30;0.22;;;;;;;;;;5020759;28;20044;-86
2022/10/14 14:57:30;;;;;;;0.20;0.10;;;;;;;;;;5003910;28;20040;-87
2022/10/14 15:00:00;;;;;;;0.20;0.10;;;;;;;;;;5008048;28;20504;-86
2022/10/14 15:02:26;;;;;;;0.20;0.10;;;;;;;;;;5016112;28;20048;-87
2022/10/14 15:05:04;;;;;;;0.20;0.10;;;;;;;;;;5003412;28;20147;-89
2022/10/14 15:07:30;;;;;;;0.20;0.10;;;;;;;;;;5035839;28;20335;-87
2022/10/14 15:09:58;;;;;;;0.20;0.10;;;;;;;;;;5014276;28;20037;-87
2022/10/14 15:12:27;;;;;;;0.20;0.10;;;;;;;;;;5016516;28;20044;-86
2022/10/14 15:15:03;;;;;;;0.20;0.10;;;;;;;;;;5017861;28;20177;-88